Time;durP1;ratioP1;P1;durP2;ratioP2;P2;SDS_P1;SDS_P2;PMS_P1;PMS_P2;Temp;Humidity;BMP_temperature;BMP_pressure;BME280_temperature;BME280_humidity;BME280_pressure;Samples;Min_cycle;Max_cycle;Signal;HPM_P1;HPM_P2
2023/10/28 00:01:17;;;;;;;0.55;0.55;;;12.90;99.90;;;;;;5115731;28;20035;-71
2023/10/28 00:03:42;;;;;;;1.27;0.85;;;12.80;99.90;;;;;;5116128;28;20035;-71
2023/10/28 00:06:08;;;;;;;0.50;0.50;;;12.80;99.90;;;;;;5115622;28;20028;-71
2023/10/28 00:08:35;;;;;;;0.20;0.20;;;12.90;99.90;;;;;;5114654;28;20092;-71
2023/10/28 00:11:01;;;;;;;0.40;0.40;;;12.90;99.90;;;;;;5115617;28;20024;-71
2023/10/28 00:13:27;;;;;;;0.75;0.40;;;13.00;99.90;;;;;;5114727;28;20104;-70
2023/10/28 00:15:53;;;;;;;0.10;0.10;;;13.00;99.90;;;;;;5115280;28;20059;-71
2023/10/28 00:18:18;;;;;;;0.15;0.15;;;13.00;99.90;;;;;;5113329;28;20054;-72
2023/10/28 00:20:45;;;;;;;0.10;0.10;;;13.00;99.90;;;;;;5103700;28;20824;-71
2023/10/28 00:23:13;;;;;;;2.92;1.75;;;13.00;99.90;;;;;;5115389;28;20027;-71
2023/10/28 00:25:39;;;;;;;4.22;1.30;;;12.90;99.90;;;;;;5106587;28;20031;-72
2023/10/28 00:28:05;;;;;;;0.45;0.45;;;12.90;99.90;;;;;;5112929;28;20075;-71
2023/10/28 00:30:31;;;;;;;6.05;0.95;;;13.00;99.90;;;;;;5109086;28;20043;-71
2023/10/28 00:33:00;;;;;;;0.52;0.52;;;13.00;99.90;;;;;;5102907;28;20468;-72
2023/10/28 00:35:28;;;;;;;0.10;0.10;;;13.00;99.90;;;;;;5105219;28;20553;-72
2023/10/28 00:37:54;;;;;;;0.80;0.63;;;13.10;99.90;;;;;;5110250;28;20088;-71
2023/10/28 00:40:25;;;;;;;0.10;0.10;;;13.00;99.90;;;;;;5115529;28;20015;-70
2023/10/28 00:42:50;;;;;;;0.05;0.05;;;12.90;99.90;;;;;;5112994;28;20019;-71
2023/10/28 00:45:16;;;;;;;1.30;0.70;;;12.80;99.90;;;;;;5098792;28;20380;-71
2023/10/28 00:47:44;;;;;;;0.45;0.40;;;12.80;99.90;;;;;;5113705;28;20023;-71
2023/10/28 00:50:14;;;;;;;5.75;0.70;;;12.80;99.90;;;;;;5114863;28;20092;-71
2023/10/28 00:52:43;;;;;;;0.77;0.60;;;12.60;99.90;;;;;;5115114;28;20487;-71
2023/10/28 00:55:11;;;;;;;5.10;0.20;;;12.60;99.90;;;;;;5114897;28;20035;-72
2023/10/28 00:57:40;;;;;;;1.45;1.10;;;12.60;99.90;;;;;;5113655;28;20024;-70
2023/10/28 01:00:07;;;;;;;1.33;0.90;;;12.70;99.90;;;;;;5112911;28;20024;-71
2023/10/28 01:02:35;;;;;;;8.52;2.67;;;12.60;99.90;;;;;;5114606;28;20432;-70
2023/10/28 01:05:02;;;;;;;0.10;0.10;;;12.50;99.90;;;;;;5114791;28;20369;-70
2023/10/28 01:07:28;;;;;;;0.10;0.10;;;12.50;99.90;;;;;;5113229;28;20020;-70
2023/10/28 01:09:53;;;;;;;0.68;0.65;;;12.50;99.90;;;;;;5113573;28;20037;-70
2023/10/28 01:12:21;;;;;;;1.98;1.38;;;12.50;99.90;;;;;;5112747;28;20019;-70
2023/10/28 01:14:46;;;;;;;0.70;0.70;;;12.50;99.90;;;;;;5113182;28;20077;-70
2023/10/28 01:17:13;;;;;;;0.70;0.52;;;12.50;99.90;;;;;;5113010;28;20430;-70
2023/10/28 01:19:39;;;;;;;3.30;1.30;;;12.40;99.90;;;;;;5113392;28;20023;-70
2023/10/28 01:22:07;;;;;;;0.55;0.55;;;12.40;99.90;;;;;;5112956;28;20122;-70
2023/10/28 01:24:34;;;;;;;0.30;0.30;;;12.30;99.90;;;;;;5113035;28;20019;-70
2023/10/28 01:27:01;;;;;;;0.73;0.40;;;12.20;99.90;;;;;;5096095;28;20036;-72
2023/10/28 01:29:28;;;;;;;0.47;0.30;;;12.20;99.90;;;;;;5112825;28;20069;-72
2023/10/28 01:31:55;;;;;;;2.88;0.65;;;12.00;99.90;;;;;;5114258;28;20032;-72
2023/10/28 01:34:22;;;;;;;0.13;0.10;;;11.90;99.90;;;;;;5099563;28;20468;-71
2023/10/28 01:36:49;;;;;;;0.10;0.10;;;11.90;99.90;;;;;;5114393;28;20031;-72
2023/10/28 01:39:18;;;;;;;1.35;0.95;;;12.10;99.90;;;;;;5112469;28;20042;-72
2023/10/28 01:41:44;;;;;;;0.30;0.30;;;12.20;99.90;;;;;;5112531;28;20023;-71
2023/10/28 01:44:11;;;;;;;0.38;0.38;;;12.10;99.90;;;;;;5112692;28;20031;-72
2023/10/28 01:46:37;;;;;;;0.30;0.30;;;12.10;99.90;;;;;;5113786;28;20027;-72
2023/10/28 01:49:04;;;;;;;1.05;0.30;;;12.10;99.90;;;;;;5113986;28;20032;-71
2023/10/28 01:51:30;;;;;;;0.80;0.80;;;12.00;99.90;;;;;;5112556;28;20494;-72
2023/10/28 01:53:56;;;;;;;0.60;0.50;;;11.90;99.90;;;;;;5113632;28;20023;-71
2023/10/28 01:56:21;;;;;;;0.10;0.10;;;12.00;99.90;;;;;;5112310;28;20074;-71
2023/10/28 01:58:47;;;;;;;0.95;0.85;;;12.00;99.90;;;;;;5112228;28;20035;-71
2023/10/28 02:01:13;;;;;;;0.13;0.13;;;12.00;99.90;;;;;;5104308;28;20044;-71
2023/10/28 02:03:38;;;;;;;0.88;0.60;;;12.10;99.90;;;;;;5111100;28;20027;-71
2023/10/28 02:06:06;;;;;;;0.40;0.40;;;12.20;99.90;;;;;;5112416;28;20089;-72
2023/10/28 02:08:31;;;;;;;0.65;0.55;;;12.20;99.90;;;;;;5113503;28;20026;-72
2023/10/28 02:10:58;;;;;;;0.40;0.40;;;12.20;99.90;;;;;;5112071;28;20028;-72
2023/10/28 02:13:24;;;;;;;0.13;0.13;;;12.20;99.90;;;;;;5112018;28;20091;-71
2023/10/28 02:15:50;;;;;;;0.95;0.95;;;12.00;99.90;;;;;;5113502;28;20028;-71
2023/10/28 02:18:18;;;;;;;0.00;0.00;;;12.00;99.90;;;;;;5112216;28;20444;-71
2023/10/28 02:20:45;;;;;;;3.92;0.85;;;12.00;99.90;;;;;;5112233;28;20015;-71
2023/10/28 02:23:14;;;;;;;0.90;0.20;;;12.00;99.90;;;;;;5111926;28;20046;-71
2023/10/28 02:25:43;;;;;;;2.30;0.65;;;12.00;99.90;;;;;;5111509;28;20499;-71
2023/10/28 02:28:12;;;;;;;0.30;0.30;;;12.10;99.90;;;;;;5113550;28;20038;-71
2023/10/28 02:30:39;;;;;;;0.00;0.00;;;12.20;99.90;;;;;;5113237;28;20027;-71
2023/10/28 02:33:06;;;;;;;0.57;0.57;;;12.20;99.90;;;;;;5107971;28;20034;-71
2023/10/28 02:35:33;;;;;;;0.10;0.10;;;12.20;99.90;;;;;;5103413;28;20028;-70
2023/10/28 02:37:59;;;;;;;0.10;0.10;;;12.10;99.90;;;;;;5113122;28;20104;-70
2023/10/28 02:40:25;;;;;;;1.00;0.57;;;12.20;99.90;;;;;;5111529;28;20024;-70
2023/10/28 02:42:50;;;;;;;0.47;0.47;;;12.30;99.90;;;;;;5112042;28;20032;-70
2023/10/28 02:45:16;;;;;;;0.30;0.30;;;12.20;99.90;;;;;;5112866;28;20011;-70
2023/10/28 02:47:42;;;;;;;0.25;0.25;;;12.10;99.90;;;;;;5111854;28;20023;-70
2023/10/28 02:50:09;;;;;;;7.32;2.17;;;12.30;99.90;;;;;;5112995;28;20446;-69
2023/10/28 02:52:35;;;;;;;0.15;0.15;;;12.20;99.90;;;;;;5113067;28;20047;-70
2023/10/28 02:55:01;;;;;;;6.32;1.00;;;12.30;99.90;;;;;;5111422;28;20198;-70
2023/10/28 02:57:27;;;;;;;16.00;1.15;;;12.20;99.90;;;;;;5111855;28;20483;-70
2023/10/28 02:59:53;;;;;;;0.10;0.10;;;12.20;99.90;;;;;;5111634;28;20032;-70
2023/10/28 03:02:18;;;;;;;0.43;0.43;;;12.20;99.90;;;;;;5112659;28;20114;-70
2023/10/28 03:04:44;;;;;;;0.35;0.35;;;12.20;99.90;;;;;;5111528;28;20115;-70
2023/10/28 03:07:10;;;;;;;0.13;0.13;;;12.30;99.90;;;;;;5114757;28;20061;-70
2023/10/28 03:09:35;;;;;;;0.50;0.50;;;12.30;99.90;;;;;;5115373;28;20093;-70
2023/10/28 03:12:02;;;;;;;0.40;0.40;;;12.30;99.90;;;;;;5116987;28;20058;-70
2023/10/28 03:14:28;;;;;;;0.95;0.95;;;12.30;99.90;;;;;;5116818;28;20032;-70
2023/10/28 03:16:54;;;;;;;0.20;0.20;;;12.40;99.90;;;;;;5098571;28;20042;-70
2023/10/28 03:19:20;;;;;;;0.30;0.30;;;12.30;99.90;;;;;;5115653;28;20020;-70
2023/10/28 03:21:46;;;;;;;0.25;0.25;;;12.40;99.90;;;;;;5115317;28;20080;-70
2023/10/28 03:24:12;;;;;;;2.00;0.55;;;12.30;99.90;;;;;;5115105;28;20015;-71
2023/10/28 03:26:38;;;;;;;0.22;0.22;;;12.40;99.90;;;;;;5115357;28;20045;-70
2023/10/28 03:29:05;;;;;;;5.53;1.40;;;12.40;99.90;;;;;;5116749;28;20026;-70
2023/10/28 03:31:31;;;;;;;0.10;0.10;;;12.30;99.90;;;;;;5116470;28;20035;-70
2023/10/28 03:33:57;;;;;;;1.15;1.05;;;12.30;99.90;;;;;;5102194;28;20024;-69
2023/10/28 03:36:24;;;;;;;0.20;0.20;;;12.30;99.90;;;;;;5113906;28;20020;-71
2023/10/28 03:38:50;;;;;;;10.60;1.85;;;12.30;99.90;;;;;;5116418;28;20040;-71
2023/10/28 03:41:15;;;;;;;1.52;1.00;;;12.20;99.90;;;;;;5115112;28;20032;-70
2023/10/28 03:43:41;;;;;;;5.45;3.63;;;12.30;99.90;;;;;;5116598;28;20106;-71
2023/10/28 03:46:07;;;;;;;3.00;1.05;;;12.30;99.90;;;;;;5114597;28;20399;-70
2023/10/28 03:48:34;;;;;;;0.43;0.43;;;12.30;99.90;;;;;;5116267;27;20069;-70
2023/10/28 03:51:02;;;;;;;9.95;1.20;;;12.30;99.90;;;;;;5114898;28;20463;-70
2023/10/28 03:53:28;;;;;;;1.98;1.85;;;12.30;99.90;;;;;;5115756;28;20018;-70
2023/10/28 03:55:54;;;;;;;11.50;0.70;;;12.30;99.90;;;;;;5116060;28;20040;-70
2023/10/28 03:58:20;;;;;;;0.10;0.10;;;12.30;99.90;;;;;;5116001;28;20090;-70
2023/10/28 04:00:48;;;;;;;2.17;0.57;;;12.40;99.90;;;;;;5116134;28;20095;-70
2023/10/28 04:03:14;;;;;;;0.20;0.20;;;12.50;99.90;;;;;;5115966;28;20047;-72
2023/10/28 04:05:40;;;;;;;0.10;0.10;;;12.40;99.90;;;;;;5115793;28;20047;-72
2023/10/28 04:08:05;;;;;;;0.57;0.30;;;12.40;99.90;;;;;;5115708;28;20030;-72
2023/10/28 04:10:31;;;;;;;0.32;0.32;;;12.50;99.90;;;;;;5115387;28;20026;-72
2023/10/28 04:12:57;;;;;;;7.57;1.95;;;12.60;99.90;;;;;;5115793;28;20030;-72
2023/10/28 04:15:23;;;;;;;0.10;0.10;;;12.60;99.90;;;;;;5115431;28;20015;-72
2023/10/28 04:17:48;;;;;;;1.85;1.42;;;12.50;99.90;;;;;;5095865;28;20537;-71
2023/10/28 04:20:14;;;;;;;1.20;1.10;;;12.50;99.90;;;;;;5115225;28;20035;-71
2023/10/28 04:22:40;;;;;;;0.00;0.00;;;12.40;99.90;;;;;;5115066;28;20085;-70
2023/10/28 04:25:08;;;;;;;0.52;0.25;;;12.50;99.90;;;;;;5115490;28;20016;-70
2023/10/28 04:27:34;;;;;;;1.65;1.55;;;12.60;99.90;;;;;;5115530;28;20049;-69
2023/10/28 04:29:59;;;;;;;0.73;0.73;;;12.60;99.90;;;;;;5114235;28;20519;-70
2023/10/28 04:32:27;;;;;;;0.50;0.50;;;12.60;99.90;;;;;;5115061;28;20042;-70
2023/10/28 04:34:53;;;;;;;0.13;0.13;;;12.70;99.90;;;;;;5101446;28;20088;-70
2023/10/28 04:37:19;;;;;;;0.22;0.22;;;12.80;99.90;;;;;;5115003;28;20040;-70
2023/10/28 04:39:45;;;;;;;1.75;1.65;;;12.70;99.90;;;;;;5114968;28;20043;-70
2023/10/28 04:42:11;;;;;;;0.10;0.10;;;12.80;99.90;;;;;;5115022;28;20020;-70
2023/10/28 04:44:37;;;;;;;1.45;0.95;;;12.90;99.90;;;;;;5114975;28;20036;-70
2023/10/28 04:47:04;;;;;;;0.13;0.13;;;12.80;99.90;;;;;;5115209;28;20165;-70
2023/10/28 04:49:30;;;;;;;0.10;0.10;;;12.80;99.90;;;;;;5114989;28;20446;-70
2023/10/28 04:51:55;;;;;;;0.40;0.40;;;12.80;99.90;;;;;;5114968;28;20042;-70
2023/10/28 04:54:22;;;;;;;0.32;0.32;;;12.70;99.90;;;;;;5115199;28;20023;-72
2023/10/28 04:56:49;;;;;;;0.70;0.60;;;12.70;99.90;;;;;;5110984;28;20015;-70
2023/10/28 04:59:15;;;;;;;1.00;0.47;;;12.60;99.90;;;;;;5114691;28;20111;-72
2023/10/28 05:01:41;;;;;;;1.75;0.75;;;12.70;99.90;;;;;;5104595;28;20095;-71
2023/10/28 05:04:10;;;;;;;0.55;0.55;;;12.60;99.90;;;;;;5094080;28;20060;-72
2023/10/28 05:06:36;;;;;;;0.70;0.40;;;12.60;99.90;;;;;;5093845;28;20484;-71
2023/10/28 05:09:02;;;;;;;2.58;0.70;;;12.80;99.90;;;;;;5092930;28;20012;-72
2023/10/28 05:11:28;;;;;;;0.20;0.20;;;12.80;99.90;;;;;;5093043;28;20031;-72
2023/10/28 05:13:54;;;;;;;6.30;0.40;;;12.80;99.90;;;;;;5093798;28;20087;-72
2023/10/28 05:16:20;;;;;;;0.08;0.08;;;12.80;99.90;;;;;;5094319;28;20036;-71
2023/10/28 05:18:46;;;;;;;1.20;1.10;;;12.80;99.90;;;;;;5093758;28;20059;-72
2023/10/28 05:21:13;;;;;;;0.15;0.15;;;12.80;99.90;;;;;;5093841;28;20036;-72
2023/10/28 05:23:39;;;;;;;6.95;0.73;;;12.90;99.90;;;;;;5093705;28;20027;-71
2023/10/28 05:26:04;;;;;;;2.00;0.55;;;13.00;99.90;;;;;;5094068;28;20036;-72
2023/10/28 05:28:31;;;;;;;6.60;1.45;;;12.90;99.90;;;;;;5093384;28;20032;-72
2023/10/28 05:30:57;;;;;;;0.10;0.10;;;12.80;99.90;;;;;;5092336;28;20019;-72
2023/10/28 05:33:23;;;;;;;0.13;0.13;;;13.00;99.90;;;;;;5093728;28;20028;-72
2023/10/28 05:35:49;;;;;;;0.10;0.10;;;12.90;99.90;;;;;;5107839;28;20491;-71
2023/10/28 05:38:15;;;;;;;0.17;0.17;;;12.90;99.90;;;;;;5114120;28;20114;-72
2023/10/28 05:40:41;;;;;;;0.57;0.57;;;13.00;99.90;;;;;;5114192;28;20537;-71
2023/10/28 05:43:07;;;;;;;1.55;0.55;;;12.80;99.90;;;;;;5113785;28;20032;-72
2023/10/28 05:45:33;;;;;;;0.10;0.10;;;12.90;99.90;;;;;;5113500;28;20172;-72
2023/10/28 05:47:59;;;;;;;0.52;0.50;;;13.00;99.90;;;;;;5113506;28;20478;-72
2023/10/28 05:50:27;;;;;;;2.00;0.47;;;12.90;99.90;;;;;;5114096;28;20039;-72
2023/10/28 05:52:54;;;;;;;0.57;0.57;;;12.80;99.90;;;;;;5113683;28;20024;-72
2023/10/28 05:55:20;;;;;;;5.72;0.40;;;12.80;99.90;;;;;;5114100;28;20022;-71
2023/10/28 05:57:46;;;;;;;2.22;0.80;;;13.00;99.90;;;;;;5113958;28;20020;-72
2023/10/28 06:00:15;;;;;;;0.98;0.85;;;13.00;99.90;;;;;;5113501;28;20108;-72
2023/10/28 06:02:42;;;;;;;0.55;0.52;;;12.90;99.90;;;;;;5113419;28;20042;-72
2023/10/28 06:05:08;;;;;;;3.08;1.23;;;12.80;99.90;;;;;;5112144;28;20027;-71
2023/10/28 06:07:35;;;;;;;1.75;0.88;;;12.90;99.90;;;;;;5113665;28;20480;-71
2023/10/28 06:10:01;;;;;;;0.00;0.00;;;12.90;99.90;;;;;;5113351;28;20085;-70
2023/10/28 06:12:27;;;;;;;0.10;0.10;;;12.90;99.90;;;;;;5113715;28;20031;-71
2023/10/28 06:14:53;;;;;;;0.10;0.10;;;13.00;99.90;;;;;;5113309;28;20028;-70
2023/10/28 06:17:20;;;;;;;0.45;0.30;;;13.00;99.90;;;;;;5111913;28;20053;-71
2023/10/28 06:19:46;;;;;;;0.30;0.30;;;12.90;99.90;;;;;;5112273;27;20085;-70
2023/10/28 06:22:13;;;;;;;0.22;0.10;;;12.90;99.90;;;;;;5099118;27;20032;-71
2023/10/28 06:24:39;;;;;;;1.77;0.80;;;12.90;99.90;;;;;;5100842;27;20048;-70
2023/10/28 06:27:05;;;;;;;0.70;0.70;;;12.80;99.90;;;;;;5114786;27;20063;-70
2023/10/28 06:29:31;;;;;;;1.45;1.35;;;12.90;99.90;;;;;;5111705;27;20024;-70
2023/10/28 06:32:00;;;;;;;0.30;0.30;;;12.90;99.90;;;;;;5111899;27;20490;-70
2023/10/28 06:34:28;;;;;;;4.47;0.52;;;12.90;99.90;;;;;;5106609;27;20057;-69
2023/10/28 06:36:55;;;;;;;4.95;0.45;;;12.90;99.90;;;;;;5115284;27;20111;-70
2023/10/28 06:39:21;;;;;;;0.40;0.38;;;13.00;99.90;;;;;;5112513;28;20027;-69
2023/10/28 06:41:47;;;;;;;0.17;0.17;;;13.00;99.90;;;;;;5126946;27;20020;-71
2023/10/28 06:44:14;;;;;;;12.90;2.33;;;13.00;99.90;;;;;;5125685;27;20030;-71
2023/10/28 06:46:39;;;;;;;0.47;0.38;;;12.90;99.90;;;;;;5117278;27;20027;-70
2023/10/28 06:49:06;;;;;;;0.10;0.10;;;12.90;99.90;;;;;;5110579;28;20042;-71
2023/10/28 06:51:33;;;;;;;3.90;0.90;;;13.00;99.90;;;;;;5125762;27;20106;-71
2023/10/28 06:53:58;;;;;;;0.63;0.63;;;12.90;99.90;;;;;;5127245;27;20379;-72
2023/10/28 06:56:27;;;;;;;1.17;0.75;;;12.80;99.90;;;;;;5123385;27;20027;-71
2023/10/28 06:58:53;;;;;;;0.63;0.13;;;12.90;99.90;;;;;;5116310;28;20472;-71
2023/10/28 07:01:19;;;;;;;1.15;0.73;;;13.00;99.90;;;;;;5095285;28;20089;-71
2023/10/28 07:03:45;;;;;;;0.98;0.40;;;12.90;99.90;;;;;;5128314;27;20119;-71
2023/10/28 07:06:14;;;;;;;2.03;0.93;;;13.00;99.90;;;;;;5126675;27;20033;-71
2023/10/28 07:08:44;;;;;;;5.55;1.42;;;13.20;99.90;;;;;;5118341;28;20383;-71
2023/10/28 07:11:13;;;;;;;0.10;0.10;;;13.10;99.90;;;;;;5114777;28;20027;-69
2023/10/28 07:13:39;;;;;;;0.55;0.43;;;13.10;99.90;;;;;;5114092;28;20031;-71
2023/10/28 07:16:06;;;;;;;0.15;0.15;;;13.00;99.90;;;;;;5127478;27;20015;-71
2023/10/28 07:18:32;;;;;;;0.88;0.73;;;13.10;99.90;;;;;;5117406;27;20368;-71
2023/10/28 07:21:00;;;;;;;0.00;0.00;;;13.10;99.90;;;;;;5116299;28;20066;-71
2023/10/28 07:23:30;;;;;;;0.20;0.20;;;13.10;99.90;;;;;;5113587;28;20016;-71
2023/10/28 07:25:57;;;;;;;0.10;0.10;;;13.00;99.90;;;;;;5101569;27;20039;-70
2023/10/28 07:28:24;;;;;;;0.10;0.10;;;13.10;99.90;;;;;;5125628;28;20046;-71
2023/10/28 07:30:51;;;;;;;3.53;1.05;;;13.10;99.90;;;;;;5118343;27;20484;-70
2023/10/28 07:33:21;;;;;;;1.17;0.47;;;13.00;99.90;;;;;;5107656;28;20039;-71
2023/10/28 07:35:48;;;;;;;0.15;0.13;;;13.00;99.90;;;;;;5118367;27;20025;-71
2023/10/28 07:38:15;;;;;;;0.45;0.30;;;13.10;99.90;;;;;;5098111;28;20031;-71
2023/10/28 07:40:41;;;;;;;0.20;0.20;;;13.10;99.90;;;;;;5121641;28;20102;-71
2023/10/28 07:43:08;;;;;;;1.00;0.60;;;13.10;99.90;;;;;;5122917;27;20016;-71
2023/10/28 07:45:34;;;;;;;6.15;0.65;;;13.20;99.90;;;;;;5117583;28;20063;-70
2023/10/28 07:48:00;;;;;;;3.08;1.25;;;13.20;99.90;;;;;;5113396;28;20055;-70
2023/10/28 07:50:26;;;;;;;0.20;0.20;;;13.10;99.90;;;;;;5120209;28;20016;-70
2023/10/28 07:52:52;;;;;;;1.58;0.82;;;13.10;99.90;;;;;;5130292;27;20481;-70
2023/10/28 07:55:17;;;;;;;1.55;0.57;;;13.00;99.90;;;;;;5124325;27;20372;-69
2023/10/28 07:57:43;;;;;;;4.70;2.13;;;13.10;99.90;;;;;;5124282;27;20031;-69
2023/10/28 08:00:11;;;;;;;1.65;0.55;;;13.10;99.90;;;;;;5117903;27;20076;-69
2023/10/28 08:02:44;;;;;;;6.63;1.48;;;13.20;99.90;;;;;;5125259;27;20027;-69
2023/10/28 08:05:12;;;;;;;0.32;0.32;;;13.30;99.90;;;;;;5126718;27;20102;-69
2023/10/28 08:07:38;;;;;;;0.32;0.32;;;13.30;99.90;;;;;;5124836;27;20028;-70
2023/10/28 08:10:05;;;;;;;3.95;1.23;;;13.20;99.90;;;;;;5122185;27;20027;-68
2023/10/28 08:12:31;;;;;;;0.30;0.30;;;13.20;99.90;;;;;;5115627;27;20030;-70
2023/10/28 08:14:59;;;;;;;1.33;0.75;;;13.20;99.90;;;;;;5127481;27;20094;-69
2023/10/28 08:17:25;;;;;;;0.40;0.40;;;13.20;99.90;;;;;;5124836;27;20031;-70
2023/10/28 08:19:51;;;;;;;2.08;0.55;;;13.30;99.90;;;;;;5117085;27;20094;-69
2023/10/28 08:22:17;;;;;;;0.68;0.28;;;13.20;99.90;;;;;;5107303;27;20028;-69
2023/10/28 08:24:42;;;;;;;0.17;0.17;;;13.30;99.90;;;;;;5095354;27;20036;-70
2023/10/28 08:27:08;;;;;;;1.73;0.30;;;13.30;99.90;;;;;;5117445;27;20117;-69
2023/10/28 08:29:34;;;;;;;0.63;0.30;;;13.30;99.90;;;;;;5106204;27;20027;-69
2023/10/28 08:32:00;;;;;;;3.25;0.57;;;13.20;99.90;;;;;;5113285;27;20023;-69
2023/10/28 08:34:26;;;;;;;0.90;0.20;;;13.20;99.90;;;;;;5108054;27;20516;-69
2023/10/28 08:36:54;;;;;;;0.20;0.20;;;13.30;99.90;;;;;;5117676;27;20043;-69
2023/10/28 08:39:20;;;;;;;1.48;1.20;;;13.30;99.90;;;;;;5115188;27;20497;-69
2023/10/28 08:41:49;;;;;;;2.15;1.25;;;13.30;99.90;;;;;;5129530;27;20047;-70
2023/10/28 08:44:17;;;;;;;0.20;0.20;;;13.40;99.90;;;;;;5127419;27;20011;-69
2023/10/28 08:46:45;;;;;;;0.00;0.00;;;13.30;99.90;;;;;;5118997;27;20044;-71
2023/10/28 08:49:14;;;;;;;1.73;1.05;;;13.50;99.90;;;;;;5113929;28;20032;-69
2023/10/28 08:51:48;;;;;;;6.75;1.20;;;13.50;99.90;;;;;;5130690;27;20402;-69
2023/10/28 08:54:16;;;;;;;2.20;0.50;;;13.40;99.90;;;;;;5129711;27;20023;-69
2023/10/28 08:56:46;;;;;;;1.92;0.43;;;13.50;99.90;;;;;;5120842;27;20027;-69
2023/10/28 08:59:12;;;;;;;0.60;0.60;;;13.50;99.90;;;;;;5117005;27;20019;-69
2023/10/28 09:01:39;;;;;;;0.20;0.20;;;13.50;99.90;;;;;;5116793;27;20509;-69
2023/10/28 09:04:05;;;;;;;0.57;0.57;;;13.60;99.90;;;;;;5130142;27;20084;-68
2023/10/28 09:06:32;;;;;;;0.65;0.30;;;13.60;99.90;;;;;;5127512;27;20072;-69
2023/10/28 09:08:59;;;;;;;8.77;1.05;;;13.80;99.90;;;;;;5119850;27;20028;-69
2023/10/28 09:11:25;;;;;;;1.30;0.47;;;13.60;99.90;;;;;;5116892;27;20039;-69
2023/10/28 09:13:51;;;;;;;9.63;1.05;;;13.50;99.90;;;;;;5117472;27;20029;-69
2023/10/28 09:16:17;;;;;;;0.22;0.17;;;13.30;99.90;;;;;;5130154;27;20019;-69
2023/10/28 09:18:44;;;;;;;1.20;0.40;;;13.50;99.90;;;;;;5117766;27;20031;-69
2023/10/28 09:21:11;;;;;;;0.85;0.50;;;13.90;99.90;;;;;;5118402;27;20361;-70
2023/10/28 09:23:38;;;;;;;0.90;0.90;;;14.20;99.90;;;;;;5115146;27;20027;-69
2023/10/28 09:26:05;;;;;;;6.03;1.17;;;13.90;99.90;;;;;;5111010;28;20032;-68
2023/10/28 09:28:31;;;;;;;0.28;0.25;;;13.90;99.90;;;;;;5114208;28;20040;-70
2023/10/28 09:30:59;;;;;;;10.23;2.05;;;13.90;99.90;;;;;;5112960;28;20031;-71
2023/10/28 09:33:30;;;;;;;19.77;1.33;;;13.70;99.90;;;;;;5102802;28;20087;-70
2023/10/28 09:35:57;;;;;;;7.80;1.27;;;13.80;99.90;;;;;;5107466;28;20035;-71
2023/10/28 09:38:23;;;;;;;5.40;0.88;;;13.90;99.90;;;;;;5112680;28;20023;-69
2023/10/28 09:40:49;;;;;;;0.80;0.80;;;13.80;99.90;;;;;;5112701;28;20468;-71
2023/10/28 09:43:15;;;;;;;0.15;0.15;;;13.90;99.90;;;;;;5113764;28;20107;-69
2023/10/28 09:45:49;;;;;;;12.45;1.20;;;13.90;99.90;;;;;;5113978;28;20368;-68
2023/10/28 09:48:17;;;;;;;0.30;0.30;;;13.70;99.90;;;;;;5113680;28;20114;-72
2023/10/28 09:50:50;;;;;;;11.35;0.73;;;13.80;99.90;;;;;;5114016;28;20031;-71
2023/10/28 09:53:29;;;;;;;13.10;2.80;;;14.20;99.90;;;;;;5113443;28;20034;-71
2023/10/28 09:55:56;;;;;;;5.72;1.08;;;14.20;99.90;;;;;;5112390;28;20039;-71
2023/10/28 09:58:37;;;;;;;7.13;1.58;;;14.10;99.90;;;;;;5113641;28;20027;-71
2023/10/28 10:01:21;;;;;;;2.03;0.85;;;14.10;99.90;;;;;;5113197;28;20032;-71
2023/10/28 10:04:06;;;;;;;0.00;0.00;;;14.10;99.90;;;;;;5113136;28;20122;-71
2023/10/28 10:06:33;;;;;;;2.20;1.10;;;14.30;99.90;;;;;;5112738;28;20043;-71
2023/10/28 10:09:00;;;;;;;0.40;0.40;;;14.50;99.90;;;;;;5113188;28;20065;-71
2023/10/28 10:11:27;;;;;;;13.60;1.52;;;14.30;99.90;;;;;;5113462;28;20063;-71
2023/10/28 10:13:55;;;;;;;6.10;1.83;;;14.20;99.90;;;;;;5113142;28;20080;-70
2023/10/28 10:16:53;;;;;;;5.50;1.38;;;14.20;99.90;;;;;;5112055;28;20535;-70
2023/10/28 10:19:35;;;;;;;17.25;2.20;;;14.10;99.90;;;;;;5113054;28;20035;-70
2023/10/28 10:22:07;;;;;;;6.78;2.28;;;13.90;99.90;;;;;;5113202;28;20020;-71
2023/10/28 10:24:33;;;;;;;3.05;0.77;;;14.00;99.90;;;;;;5112853;28;20027;-71
2023/10/28 10:27:00;;;;;;;1.15;0.82;;;14.30;99.90;;;;;;5111682;28;20054;-70
2023/10/28 10:29:38;;;;;;;8.20;1.98;;;14.20;99.90;;;;;;5112910;28;20144;-70
2023/10/28 10:32:16;;;;;;;8.02;0.98;;;14.50;99.90;;;;;;5112848;28;20032;-70
2023/10/28 10:34:45;;;;;;;1.10;0.65;;;15.00;99.90;;;;;;5098613;28;20464;-69
2023/10/28 10:37:24;;;;;;;12.45;1.45;;;15.00;99.90;;;;;;5113133;28;20024;-70
2023/10/28 10:39:49;;;;;;;6.28;1.25;;;15.10;99.90;;;;;;5112584;28;20487;-70
2023/10/28 10:42:16;;;;;;;7.28;0.90;;;15.20;99.90;;;;;;5113150;28;20035;-70
2023/10/28 10:44:42;;;;;;;9.48;2.65;;;15.60;99.90;;;;;;5112576;28;20012;-70
2023/10/28 10:47:08;;;;;;;7.57;1.13;;;15.50;99.90;;;;;;5112987;28;20047;-71
2023/10/28 10:49:36;;;;;;;1.35;0.77;;;15.50;99.90;;;;;;5112625;28;20090;-70
2023/10/28 10:52:04;;;;;;;8.68;1.55;;;16.00;99.90;;;;;;5112832;28;20031;-71
2023/10/28 10:54:33;;;;;;;6.03;0.85;;;15.80;99.90;;;;;;5112403;28;20028;-69
2023/10/28 10:56:59;;;;;;;2.63;0.68;;;16.00;99.90;;;;;;5113079;28;20428;-71
2023/10/28 10:59:32;;;;;;;3.00;0.65;;;16.00;99.90;;;;;;5112682;28;20115;-69
2023/10/28 11:01:59;;;;;;;0.65;0.47;;;16.60;99.90;;;;;;5102432;28;20546;-69
2023/10/28 11:04:25;;;;;;;4.25;1.30;;;16.60;99.90;;;;;;5112229;28;20084;-71
2023/10/28 11:06:54;;;;;;;0.35;0.35;;;15.90;99.90;;;;;;5108842;28;20432;-71
2023/10/28 11:09:21;;;;;;;13.27;1.75;;;16.10;99.90;;;;;;5102591;28;20468;-70
2023/10/28 11:11:47;;;;;;;2.10;1.80;;;15.50;99.90;;;;;;5112389;28;20020;-69
2023/10/28 11:14:13;;;;;;;0.30;0.15;;;15.30;99.90;;;;;;5111542;28;20067;-69
2023/10/28 11:16:41;;;;;;;5.03;0.40;;;15.30;99.90;;;;;;5112496;28;20051;-70
2023/10/28 11:19:09;;;;;;;3.22;0.63;;;15.40;99.90;;;;;;5108113;28;20480;-70
2023/10/28 11:21:36;;;;;;;0.00;0.00;;;15.30;99.90;;;;;;5080806;28;20427;-70
2023/10/28 11:24:04;;;;;;;7.32;1.08;;;15.30;99.90;;;;;;5093137;28;20033;-70
2023/10/28 11:26:30;;;;;;;2.83;0.55;;;15.10;99.90;;;;;;5111197;27;20371;-72
2023/10/28 11:29:00;;;;;;;9.35;1.77;;;15.20;99.90;;;;;;5109937;27;20016;-70
2023/10/28 11:31:29;;;;;;;5.20;1.40;;;15.80;99.90;;;;;;5104464;27;20028;-70
2023/10/28 11:33:59;;;;;;;6.70;1.13;;;16.40;99.90;;;;;;5114684;27;20527;-70
2023/10/28 11:36:25;;;;;;;4.03;0.75;;;16.90;99.90;;;;;;5120121;27;20391;-70
2023/10/28 11:38:52;;;;;;;10.13;1.38;;;16.90;99.90;;;;;;5117008;27;20034;-70
2023/10/28 11:41:21;;;;;;;0.93;0.75;;;17.30;99.90;;;;;;5128829;27;20408;-70
2023/10/28 11:43:50;;;;;;;14.85;1.52;;;17.30;99.90;;;;;;5108681;27;20019;-70
2023/10/28 11:46:16;;;;;;;6.22;1.40;;;16.50;99.90;;;;;;5125082;27;20134;-69
2023/10/28 11:48:45;;;;;;;0.65;0.65;;;16.60;99.90;;;;;;5114796;28;20051;-70
2023/10/28 11:51:12;;;;;;;5.82;1.25;;;16.50;99.90;;;;;;5115658;27;20417;-70
2023/10/28 11:53:44;;;;;;;5.82;1.65;;;16.60;99.90;;;;;;5130513;27;20027;-70
2023/10/28 11:56:10;;;;;;;13.63;1.58;;;16.50;99.90;;;;;;5129129;27;20080;-70
2023/10/28 11:58:36;;;;;;;0.70;0.40;;;16.60;99.90;;;;;;5118476;27;20513;-70
2023/10/28 12:01:02;;;;;;;12.95;2.35;;;16.30;99.90;;;;;;5117697;27;20118;-70
2023/10/28 12:03:27;;;;;;;2.63;1.15;;;15.70;99.90;;;;;;5130402;27;20024;-70
2023/10/28 12:05:53;;;;;;;7.57;1.40;;;15.60;99.90;;;;;;5130053;27;20118;-70
2023/10/28 12:08:19;;;;;;;0.82;0.15;;;16.20;99.90;;;;;;5126383;27;20031;-70
2023/10/28 12:10:46;;;;;;;9.85;2.95;;;16.30;99.90;;;;;;5119349;27;20073;-70
2023/10/28 12:13:16;;;;;;;5.32;1.35;;;16.30;99.90;;;;;;5116597;27;20088;-70
2023/10/28 12:15:42;;;;;;;0.70;0.13;;;16.30;99.90;;;;;;5127447;27;20019;-70
2023/10/28 12:18:07;;;;;;;1.27;0.35;;;17.00;99.90;;;;;;5129668;27;20023;-70
2023/10/28 12:20:33;;;;;;;13.05;2.25;;;16.70;99.90;;;;;;5120582;27;20094;-70
2023/10/28 12:22:59;;;;;;;1.50;0.43;;;15.70;99.90;;;;;;5114351;28;20028;-70
2023/10/28 12:25:26;;;;;;;1.77;0.88;;;15.50;99.90;;;;;;5113863;28;20039;-70
2023/10/28 12:27:52;;;;;;;2.40;0.80;;;15.60;99.90;;;;;;5115268;28;20035;-70
2023/10/28 12:30:18;;;;;;;5.50;2.03;;;15.80;99.90;;;;;;5114072;28;20042;-70
2023/10/28 12:32:50;;;;;;;10.43;1.23;;;16.00;99.90;;;;;;5110996;28;20046;-70
2023/10/28 12:35:18;;;;;;;1.35;0.90;;;16.00;99.90;;;;;;5104368;28;20039;-70
2023/10/28 12:37:44;;;;;;;5.47;1.23;;;16.40;99.90;;;;;;5114617;28;20034;-70
2023/10/28 12:40:10;;;;;;;5.97;1.25;;;16.40;99.90;;;;;;5114727;28;20479;-70
2023/10/28 12:42:37;;;;;;;4.43;2.53;;;16.00;99.90;;;;;;5110170;27;20026;-70
2023/10/28 12:45:06;;;;;;;13.30;1.83;;;16.10;99.90;;;;;;5093767;28;20024;-70